sensor_id;sensor_type;location;lat;lon;timestamp;temperature;humidity
27540;DHT22;15906;52.046;4.724;2024-01-07T00:01:40;2.20;99.90
27540;DHT22;15906;52.046;4.724;2024-01-07T00:04:10;2.20;99.90
27540;DHT22;15906;52.046;4.724;2024-01-07T00:06:36;2.20;99.90
27540;DHT22;15906;52.046;4.724;2024-01-07T00:09:01;2.20;99.90
27540;DHT22;15906;52.046;4.724;2024-01-07T00:11:27;2.10;99.90
27540;DHT22;15906;52.046;4.724;2024-01-07T00:13:52;2.10;99.90
27540;DHT22;15906;52.046;4.724;2024-01-07T00:16:18;2.00;99.90
27540;DHT22;15906;52.046;4.724;2024-01-07T00:18:44;2.10;99.90
27540;DHT22;15906;52.046;4.724;2024-01-07T00:21:10;2.20;99.90
27540;DHT22;15906;52.046;4.724;2024-01-07T00:23:35;2.20;99.90
27540;DHT22;15906;52.046;4.724;2024-01-07T00:26:01;2.10;99.90
27540;DHT22;15906;52.046;4.724;2024-01-07T00:28:28;2.10;99.90
27540;DHT22;15906;52.046;4.724;2024-01-07T00:30:54;2.10;99.90
27540;DHT22;15906;52.046;4.724;2024-01-07T00:33:19;2.10;99.90
27540;DHT22;15906;52.046;4.724;2024-01-07T00:35:45;2.00;99.90
27540;DHT22;15906;52.046;4.724;2024-01-07T00:38:10;2.00;99.90
27540;DHT22;15906;52.046;4.724;2024-01-07T00:40:36;2.10;99.90
27540;DHT22;15906;52.046;4.724;2024-01-07T00:43:03;2.00;99.90
27540;DHT22;15906;52.046;4.724;2024-01-07T00:45:29;2.10;99.90
27540;DHT22;15906;52.046;4.724;2024-01-07T00:47:54;2.10;99.90
27540;DHT22;15906;52.046;4.724;2024-01-07T00:50:20;2.00;99.90
27540;DHT22;15906;52.046;4.724;2024-01-07T00:52:45;2.00;99.90
27540;DHT22;15906;52.046;4.724;2024-01-07T00:55:11;2.10;99.90
27540;DHT22;15906;52.046;4.724;2024-01-07T00:57:37;2.10;99.90
27540;DHT22;15906;52.046;4.724;2024-01-07T01:00:06;2.10;99.90
27540;DHT22;15906;52.046;4.724;2024-01-07T01:02:32;2.00;99.90
27540;DHT22;15906;52.046;4.724;2024-01-07T01:04:57;2.00;99.90
27540;DHT22;15906;52.046;4.724;2024-01-07T01:07:23;2.00;99.90
27540;DHT22;15906;52.046;4.724;2024-01-07T01:09:48;2.00;99.90
27540;DHT22;15906;52.046;4.724;2024-01-07T01:12:14;2.10;99.90
27540;DHT22;15906;52.046;4.724;2024-01-07T01:14:41;2.10;99.90
27540;DHT22;15906;52.046;4.724;2024-01-07T01:17:06;2.00;99.90
27540;DHT22;15906;52.046;4.724;2024-01-07T01:19:32;1.90;99.90
27540;DHT22;15906;52.046;4.724;2024-01-07T01:21:57;1.90;99.90
27540;DHT22;15906;52.046;4.724;2024-01-07T01:24:23;2.00;99.90
27540;DHT22;15906;52.046;4.724;2024-01-07T01:26:48;1.90;99.90
27540;DHT22;15906;52.046;4.724;2024-01-07T01:29:14;1.90;99.90
27540;DHT22;15906;52.046;4.724;2024-01-07T01:31:39;1.90;99.90
27540;DHT22;15906;52.046;4.724;2024-01-07T01:34:05;1.90;99.90
27540;DHT22;15906;52.046;4.724;2024-01-07T01:36:31;2.00;99.90
27540;DHT22;15906;52.046;4.724;2024-01-07T01:38:57;1.90;99.90
27540;DHT22;15906;52.046;4.724;2024-01-07T01:41:22;1.90;99.90
27540;DHT22;15906;52.046;4.724;2024-01-07T01:43:48;1.90;99.90
27540;DHT22;15906;52.046;4.724;2024-01-07T01:46:14;1.80;99.90
27540;DHT22;15906;52.046;4.724;2024-01-07T01:48:40;1.90;99.90
27540;DHT22;15906;52.046;4.724;2024-01-07T01:51:07;1.90;99.90
27540;DHT22;15906;52.046;4.724;2024-01-07T01:53:33;1.90;99.90
27540;DHT22;15906;52.046;4.724;2024-01-07T01:56:00;1.90;99.90
27540;DHT22;15906;52.046;4.724;2024-01-07T01:58:28;1.80;99.90
27540;DHT22;15906;52.046;4.724;2024-01-07T02:00:55;1.80;99.90
27540;DHT22;15906;52.046;4.724;2024-01-07T02:03:20;1.80;99.90
27540;DHT22;15906;52.046;4.724;2024-01-07T02:05:48;1.80;99.90
27540;DHT22;15906;52.046;4.724;2024-01-07T02:08:14;1.80;99.90
27540;DHT22;15906;52.046;4.724;2024-01-07T02:10:40;1.80;99.90
27540;DHT22;15906;52.046;4.724;2024-01-07T02:13:05;1.70;99.90
27540;DHT22;15906;52.046;4.724;2024-01-07T02:15:32;1.70;99.90
27540;DHT22;15906;52.046;4.724;2024-01-07T02:17:59;1.70;99.90
27540;DHT22;15906;52.046;4.724;2024-01-07T02:20:24;1.70;99.90
27540;DHT22;15906;52.046;4.724;2024-01-07T02:22:50;1.70;99.90
27540;DHT22;15906;52.046;4.724;2024-01-07T02:25:16;1.70;99.90
27540;DHT22;15906;52.046;4.724;2024-01-07T02:27:42;1.70;99.90
27540;DHT22;15906;52.046;4.724;2024-01-07T02:30:08;1.80;99.90
27540;DHT22;15906;52.046;4.724;2024-01-07T02:32:33;1.80;99.90
27540;DHT22;15906;52.046;4.724;2024-01-07T02:35:01;1.70;99.90
27540;DHT22;15906;52.046;4.724;2024-01-07T02:37:27;1.70;99.90
27540;DHT22;15906;52.046;4.724;2024-01-07T02:39:52;1.70;99.90
27540;DHT22;15906;52.046;4.724;2024-01-07T02:42:18;1.70;99.90
27540;DHT22;15906;52.046;4.724;2024-01-07T02:44:43;1.70;99.90
27540;DHT22;15906;52.046;4.724;2024-01-07T02:47:09;1.70;99.90
27540;DHT22;15906;52.046;4.724;2024-01-07T02:49:34;1.60;99.90
27540;DHT22;15906;52.046;4.724;2024-01-07T02:52:00;1.70;99.90
27540;DHT22;15906;52.046;4.724;2024-01-07T02:54:26;1.60;99.90
27540;DHT22;15906;52.046;4.724;2024-01-07T02:56:51;1.60;99.90
27540;DHT22;15906;52.046;4.724;2024-01-07T02:59:17;1.60;99.90
27540;DHT22;15906;52.046;4.724;2024-01-07T03:01:42;1.60;99.90
27540;DHT22;15906;52.046;4.724;2024-01-07T03:04:10;1.60;99.90
27540;DHT22;15906;52.046;4.724;2024-01-07T03:06:35;1.60;99.90
27540;DHT22;15906;52.046;4.724;2024-01-07T03:09:01;1.60;99.90
27540;DHT22;15906;52.046;4.724;2024-01-07T03:11:28;1.50;99.90
27540;DHT22;15906;52.046;4.724;2024-01-07T03:13:55;1.50;99.90
27540;DHT22;15906;52.046;4.724;2024-01-07T03:16:25;1.50;99.90
27540;DHT22;15906;52.046;4.724;2024-01-07T03:18:51;1.50;99.90
27540;DHT22;15906;52.046;4.724;2024-01-07T03:21:18;1.60;99.90
27540;DHT22;15906;52.046;4.724;2024-01-07T03:23:44;1.50;99.90
27540;DHT22;15906;52.046;4.724;2024-01-07T03:26:09;1.60;99.90
27540;DHT22;15906;52.046;4.724;2024-01-07T03:28:35;1.50;99.90
27540;DHT22;15906;52.046;4.724;2024-01-07T03:31:12;1.60;99.90
27540;DHT22;15906;52.046;4.724;2024-01-07T03:33:39;1.60;99.90
27540;DHT22;15906;52.046;4.724;2024-01-07T03:36:09;1.60;99.90
27540;DHT22;15906;52.046;4.724;2024-01-07T03:38:35;1.60;99.90
27540;DHT22;15906;52.046;4.724;2024-01-07T03:41:00;1.60;99.90
27540;DHT22;15906;52.046;4.724;2024-01-07T03:43:26;1.60;99.90
27540;DHT22;15906;52.046;4.724;2024-01-07T03:45:51;1.60;99.90
27540;DHT22;15906;52.046;4.724;2024-01-07T03:48:17;1.60;99.90
27540;DHT22;15906;52.046;4.724;2024-01-07T03:50:42;1.60;99.90
27540;DHT22;15906;52.046;4.724;2024-01-07T03:53:09;1.60;99.90
27540;DHT22;15906;52.046;4.724;2024-01-07T03:55:34;1.50;99.90
27540;DHT22;15906;52.046;4.724;2024-01-07T03:58:00;1.50;99.90
27540;DHT22;15906;52.046;4.724;2024-01-07T04:00:25;1.50;99.90
27540;DHT22;15906;52.046;4.724;2024-01-07T04:02:51;1.60;99.90
27540;DHT22;15906;52.046;4.724;2024-01-07T04:05:16;1.60;99.90
27540;DHT22;15906;52.046;4.724;2024-01-07T04:07:42;1.60;99.90
27540;DHT22;15906;52.046;4.724;2024-01-07T04:10:08;1.50;99.90
27540;DHT22;15906;52.046;4.724;2024-01-07T04:12:33;1.60;99.90
27540;DHT22;15906;52.046;4.724;2024-01-07T04:14:59;1.50;99.90
27540;DHT22;15906;52.046;4.724;2024-01-07T04:17:25;1.60;99.90
27540;DHT22;15906;52.046;4.724;2024-01-07T04:19:51;1.50;99.90
27540;DHT22;15906;52.046;4.724;2024-01-07T04:22:17;1.50;99.90
27540;DHT22;15906;52.046;4.724;2024-01-07T04:24:42;1.50;99.90
27540;DHT22;15906;52.046;4.724;2024-01-07T04:27:08;1.50;99.90
27540;DHT22;15906;52.046;4.724;2024-01-07T04:29:33;1.50;99.90
27540;DHT22;15906;52.046;4.724;2024-01-07T04:31:59;1.50;99.90
27540;DHT22;15906;52.046;4.724;2024-01-07T04:34:24;1.50;99.90
27540;DHT22;15906;52.046;4.724;2024-01-07T04:36:50;1.50;99.90
27540;DHT22;15906;52.046;4.724;2024-01-07T04:39:16;1.50;99.90
27540;DHT22;15906;52.046;4.724;2024-01-07T04:41:41;1.50;99.90
27540;DHT22;15906;52.046;4.724;2024-01-07T04:44:07;1.40;99.90
27540;DHT22;15906;52.046;4.724;2024-01-07T04:46:39;1.50;99.90
27540;DHT22;15906;52.046;4.724;2024-01-07T04:49:05;1.40;99.90
27540;DHT22;15906;52.046;4.724;2024-01-07T04:51:32;1.50;99.90
27540;DHT22;15906;52.046;4.724;2024-01-07T04:53:57;1.40;99.90
27540;DHT22;15906;52.046;4.724;2024-01-07T04:56:23;1.40;99.90
27540;DHT22;15906;52.046;4.724;2024-01-07T04:58:49;1.40;99.90
27540;DHT22;15906;52.046;4.724;2024-01-07T05:01:14;1.40;99.90
27540;DHT22;15906;52.046;4.724;2024-01-07T05:03:40;1.40;99.90
27540;DHT22;15906;52.046;4.724;2024-01-07T05:06:08;1.50;99.90
27540;DHT22;15906;52.046;4.724;2024-01-07T05:08:34;1.30;99.90
27540;DHT22;15906;52.046;4.724;2024-01-07T05:10:59;1.40;99.90
27540;DHT22;15906;52.046;4.724;2024-01-07T05:13:25;1.40;99.90
27540;DHT22;15906;52.046;4.724;2024-01-07T05:15:50;1.40;99.90
27540;DHT22;15906;52.046;4.724;2024-01-07T05:18:22;1.30;99.90
27540;DHT22;15906;52.046;4.724;2024-01-07T05:20:48;1.40;99.90
27540;DHT22;15906;52.046;4.724;2024-01-07T05:23:14;1.40;99.90
27540;DHT22;15906;52.046;4.724;2024-01-07T05:25:39;1.40;99.90
27540;DHT22;15906;52.046;4.724;2024-01-07T05:28:05;1.40;99.90
27540;DHT22;15906;52.046;4.724;2024-01-07T05:30:31;1.30;99.90
27540;DHT22;15906;52.046;4.724;2024-01-07T05:32:57;1.30;99.90
27540;DHT22;15906;52.046;4.724;2024-01-07T05:35:22;1.20;99.90
27540;DHT22;15906;52.046;4.724;2024-01-07T05:37:48;1.30;99.90
27540;DHT22;15906;52.046;4.724;2024-01-07T05:40:13;1.30;99.90
27540;DHT22;15906;52.046;4.724;2024-01-07T05:42:39;1.30;99.90
27540;DHT22;15906;52.046;4.724;2024-01-07T05:45:05;1.30;99.90
27540;DHT22;15906;52.046;4.724;2024-01-07T05:47:31;1.30;99.90
27540;DHT22;15906;52.046;4.724;2024-01-07T05:49:56;1.30;99.90
27540;DHT22;15906;52.046;4.724;2024-01-07T05:52:22;1.30;99.90
27540;DHT22;15906;52.046;4.724;2024-01-07T05:54:48;1.30;99.90
27540;DHT22;15906;52.046;4.724;2024-01-07T05:57:13;1.40;99.90
27540;DHT22;15906;52.046;4.724;2024-01-07T05:59:39;1.40;99.90
27540;DHT22;15906;52.046;4.724;2024-01-07T06:02:05;1.30;99.90
27540;DHT22;15906;52.046;4.724;2024-01-07T06:04:30;1.30;99.90
27540;DHT22;15906;52.046;4.724;2024-01-07T06:06:56;1.40;99.90
27540;DHT22;15906;52.046;4.724;2024-01-07T06:09:21;1.30;99.90
27540;DHT22;15906;52.046;4.724;2024-01-07T06:11:47;1.40;99.90
27540;DHT22;15906;52.046;4.724;2024-01-07T06:14:13;1.40;99.90
27540;DHT22;15906;52.046;4.724;2024-01-07T06:16:38;1.30;99.90
27540;DHT22;15906;52.046;4.724;2024-01-07T06:19:04;1.30;99.90
27540;DHT22;15906;52.046;4.724;2024-01-07T06:21:29;1.40;99.90
27540;DHT22;15906;52.046;4.724;2024-01-07T06:23:55;1.40;99.90
27540;DHT22;15906;52.046;4.724;2024-01-07T06:26:21;1.40;99.90
27540;DHT22;15906;52.046;4.724;2024-01-07T06:28:46;1.30;99.90
27540;DHT22;15906;52.046;4.724;2024-01-07T06:31:12;1.30;99.90
27540;DHT22;15906;52.046;4.724;2024-01-07T06:33:37;1.30;99.90
27540;DHT22;15906;52.046;4.724;2024-01-07T06:36:03;1.30;99.90
27540;DHT22;15906;52.046;4.724;2024-01-07T06:38:29;1.30;99.90
27540;DHT22;15906;52.046;4.724;2024-01-07T06:40:55;1.30;99.90
27540;DHT22;15906;52.046;4.724;2024-01-07T06:43:24;1.30;99.90
27540;DHT22;15906;52.046;4.724;2024-01-07T06:45:50;1.40;99.90
27540;DHT22;15906;52.046;4.724;2024-01-07T06:48:15;1.30;99.90
27540;DHT22;15906;52.046;4.724;2024-01-07T06:50:41;1.30;99.90
27540;DHT22;15906;52.046;4.724;2024-01-07T06:53:06;1.30;99.90
27540;DHT22;15906;52.046;4.724;2024-01-07T06:55:32;1.40;99.90
27540;DHT22;15906;52.046;4.724;2024-01-07T06:57:57;1.40;99.90
27540;DHT22;15906;52.046;4.724;2024-01-07T07:00:23;1.30;99.90
27540;DHT22;15906;52.046;4.724;2024-01-07T07:02:48;1.40;99.90
27540;DHT22;15906;52.046;4.724;2024-01-07T07:05:14;1.40;99.90
27540;DHT22;15906;52.046;4.724;2024-01-07T07:07:40;1.30;99.90
27540;DHT22;15906;52.046;4.724;2024-01-07T07:10:05;1.30;99.90
27540;DHT22;15906;52.046;4.724;2024-01-07T07:12:31;1.30;99.90
27540;DHT22;15906;52.046;4.724;2024-01-07T07:14:56;1.40;99.90
27540;DHT22;15906;52.046;4.724;2024-01-07T07:17:22;1.30;99.90
27540;DHT22;15906;52.046;4.724;2024-01-07T07:19:48;1.30;99.90
27540;DHT22;15906;52.046;4.724;2024-01-07T07:22:13;1.30;99.90
27540;DHT22;15906;52.046;4.724;2024-01-07T07:24:42;1.30;99.90
27540;DHT22;15906;52.046;4.724;2024-01-07T07:27:08;1.30;99.90
27540;DHT22;15906;52.046;4.724;2024-01-07T07:29:34;1.40;99.90
27540;DHT22;15906;52.046;4.724;2024-01-07T07:31:59;1.40;99.90
27540;DHT22;15906;52.046;4.724;2024-01-07T07:34:25;1.30;99.90
27540;DHT22;15906;52.046;4.724;2024-01-07T07:36:50;1.40;99.90
27540;DHT22;15906;52.046;4.724;2024-01-07T07:39:17;1.40;99.90
27540;DHT22;15906;52.046;4.724;2024-01-07T07:41:42;1.30;99.90
27540;DHT22;15906;52.046;4.724;2024-01-07T07:44:08;1.30;99.90
27540;DHT22;15906;52.046;4.724;2024-01-07T07:46:33;1.30;99.90
27540;DHT22;15906;52.046;4.724;2024-01-07T07:48:59;1.30;99.90
27540;DHT22;15906;52.046;4.724;2024-01-07T07:51:26;1.30;99.90
27540;DHT22;15906;52.046;4.724;2024-01-07T07:53:52;1.20;99.90
27540;DHT22;15906;52.046;4.724;2024-01-07T07:56:17;1.20;99.90
27540;DHT22;15906;52.046;4.724;2024-01-07T07:58:43;1.20;99.90
27540;DHT22;15906;52.046;4.724;2024-01-07T08:01:08;1.20;99.90
27540;DHT22;15906;52.046;4.724;2024-01-07T08:03:34;1.20;99.90
27540;DHT22;15906;52.046;4.724;2024-01-07T08:06:00;1.20;99.90
27540;DHT22;15906;52.046;4.724;2024-01-07T08:08:25;1.30;99.90
27540;DHT22;15906;52.046;4.724;2024-01-07T08:10:51;1.30;99.90
27540;DHT22;15906;52.046;4.724;2024-01-07T08:13:16;1.20;99.90
27540;DHT22;15906;52.046;4.724;2024-01-07T08:15:42;1.20;99.90
27540;DHT22;15906;52.046;4.724;2024-01-07T08:18:08;1.20;99.90
27540;DHT22;15906;52.046;4.724;2024-01-07T08:20:33;1.20;99.90
27540;DHT22;15906;52.046;4.724;2024-01-07T08:22:59;1.10;99.90
27540;DHT22;15906;52.046;4.724;2024-01-07T08:25:25;1.10;99.90
27540;DHT22;15906;52.046;4.724;2024-01-07T08:27:51;1.10;99.90
27540;DHT22;15906;52.046;4.724;2024-01-07T08:30:16;1.10;99.90
27540;DHT22;15906;52.046;4.724;2024-01-07T08:32:42;1.20;99.90
27540;DHT22;15906;52.046;4.724;2024-01-07T08:35:08;1.20;99.90
27540;DHT22;15906;52.046;4.724;2024-01-07T08:37:34;1.20;99.90
27540;DHT22;15906;52.046;4.724;2024-01-07T08:40:00;1.20;99.90
27540;DHT22;15906;52.046;4.724;2024-01-07T08:42:27;1.20;99.90
27540;DHT22;15906;52.046;4.724;2024-01-07T08:44:54;1.10;99.90
27540;DHT22;15906;52.046;4.724;2024-01-07T08:47:20;1.10;99.90
27540;DHT22;15906;52.046;4.724;2024-01-07T08:49:45;1.10;99.90
27540;DHT22;15906;52.046;4.724;2024-01-07T08:52:11;1.10;99.90
27540;DHT22;15906;52.046;4.724;2024-01-07T08:54:37;1.20;99.90
27540;DHT22;15906;52.046;4.724;2024-01-07T08:57:02;1.20;99.90
27540;DHT22;15906;52.046;4.724;2024-01-07T08:59:28;1.20;99.90
27540;DHT22;15906;52.046;4.724;2024-01-07T09:01:53;1.20;99.90
27540;DHT22;15906;52.046;4.724;2024-01-07T09:04:19;1.20;99.90
27540;DHT22;15906;52.046;4.724;2024-01-07T09:06:44;1.20;99.90
27540;DHT22;15906;52.046;4.724;2024-01-07T09:09:10;1.20;99.90
27540;DHT22;15906;52.046;4.724;2024-01-07T09:11:36;1.10;99.90
27540;DHT22;15906;52.046;4.724;2024-01-07T09:14:02;1.10;99.90
27540;DHT22;15906;52.046;4.724;2024-01-07T09:16:29;1.10;99.90
27540;DHT22;15906;52.046;4.724;2024-01-07T09:18:54;1.10;99.90
27540;DHT22;15906;52.046;4.724;2024-01-07T09:21:20;1.00;99.90
27540;DHT22;15906;52.046;4.724;2024-01-07T09:23:46;1.10;99.90
27540;DHT22;15906;52.046;4.724;2024-01-07T09:26:11;1.10;99.90
27540;DHT22;15906;52.046;4.724;2024-01-07T09:28:37;1.10;99.90
27540;DHT22;15906;52.046;4.724;2024-01-07T09:31:03;1.10;99.90
27540;DHT22;15906;52.046;4.724;2024-01-07T09:33:28;1.00;99.90
27540;DHT22;15906;52.046;4.724;2024-01-07T09:35:54;1.10;99.90
27540;DHT22;15906;52.046;4.724;2024-01-07T09:38:20;1.00;99.90
27540;DHT22;15906;52.046;4.724;2024-01-07T09:40:46;1.10;99.90
27540;DHT22;15906;52.046;4.724;2024-01-07T09:43:11;1.00;99.90
27540;DHT22;15906;52.046;4.724;2024-01-07T09:45:38;1.00;99.90
27540;DHT22;15906;52.046;4.724;2024-01-07T09:48:06;0.90;99.90
27540;DHT22;15906;52.046;4.724;2024-01-07T09:50:32;0.90;99.90
27540;DHT22;15906;52.046;4.724;2024-01-07T09:52:58;0.90;99.90
27540;DHT22;15906;52.046;4.724;2024-01-07T09:55:33;0.90;99.90
27540;DHT22;15906;52.046;4.724;2024-01-07T09:58:00;0.90;99.90
27540;DHT22;15906;52.046;4.724;2024-01-07T10:00:28;0.90;99.90
27540;DHT22;15906;52.046;4.724;2024-01-07T10:02:54;1.00;99.90
27540;DHT22;15906;52.046;4.724;2024-01-07T10:05:20;1.00;99.90
27540;DHT22;15906;52.046;4.724;2024-01-07T10:07:46;1.00;99.90
27540;DHT22;15906;52.046;4.724;2024-01-07T10:10:16;1.00;99.90
27540;DHT22;15906;52.046;4.724;2024-01-07T10:12:45;1.00;99.90
27540;DHT22;15906;52.046;4.724;2024-01-07T10:15:14;1.10;99.90
27540;DHT22;15906;52.046;4.724;2024-01-07T10:17:44;1.00;99.90
27540;DHT22;15906;52.046;4.724;2024-01-07T10:20:10;1.00;99.90
27540;DHT22;15906;52.046;4.724;2024-01-07T10:22:37;1.10;99.90
27540;DHT22;15906;52.046;4.724;2024-01-07T10:25:06;1.10;99.90
27540;DHT22;15906;52.046;4.724;2024-01-07T10:27:36;1.10;99.90
27540;DHT22;15906;52.046;4.724;2024-01-07T10:30:02;1.10;99.90
27540;DHT22;15906;52.046;4.724;2024-01-07T10:32:28;1.10;99.90
27540;DHT22;15906;52.046;4.724;2024-01-07T10:35:01;1.10;99.90
27540;DHT22;15906;52.046;4.724;2024-01-07T10:37:27;1.10;99.90
27540;DHT22;15906;52.046;4.724;2024-01-07T10:39:53;1.10;99.90
27540;DHT22;15906;52.046;4.724;2024-01-07T10:42:22;1.10;99.90
27540;DHT22;15906;52.046;4.724;2024-01-07T10:44:49;1.10;99.90
27540;DHT22;15906;52.046;4.724;2024-01-07T10:47:16;1.10;99.90
27540;DHT22;15906;52.046;4.724;2024-01-07T10:49:48;1.00;99.90
27540;DHT22;15906;52.046;4.724;2024-01-07T10:52:16;1.10;99.90
27540;DHT22;15906;52.046;4.724;2024-01-07T10:54:44;1.10;99.90
27540;DHT22;15906;52.046;4.724;2024-01-07T10:59:53;1.10;99.90
27540;DHT22;15906;52.046;4.724;2024-01-07T11:02:20;1.20;99.90
27540;DHT22;15906;52.046;4.724;2024-01-07T11:04:54;1.20;99.90
27540;DHT22;15906;52.046;4.724;2024-01-07T11:07:41;1.30;99.90
27540;DHT22;15906;52.046;4.724;2024-01-07T11:12:43;1.50;99.90
27540;DHT22;15906;52.046;4.724;2024-01-07T11:15:08;1.50;99.90
27540;DHT22;15906;52.046;4.724;2024-01-07T11:20:06;1.50;99.90
27540;DHT22;15906;52.046;4.724;2024-01-07T11:22:32;1.60;99.90
27540;DHT22;15906;52.046;4.724;2024-01-07T11:25:01;1.50;99.90
27540;DHT22;15906;52.046;4.724;2024-01-07T11:27:31;1.50;99.90
27540;DHT22;15906;52.046;4.724;2024-01-07T11:30:07;1.50;99.90
27540;DHT22;15906;52.046;4.724;2024-01-07T11:32:35;1.70;99.90
27540;DHT22;15906;52.046;4.724;2024-01-07T11:35:01;1.80;99.90
27540;DHT22;15906;52.046;4.724;2024-01-07T11:37:28;1.90;99.90
27540;DHT22;15906;52.046;4.724;2024-01-07T11:39:57;2.00;99.90
27540;DHT22;15906;52.046;4.724;2024-01-07T11:42:25;2.00;99.90
27540;DHT22;15906;52.046;4.724;2024-01-07T11:44:55;2.10;99.90
27540;DHT22;15906;52.046;4.724;2024-01-07T11:47:22;2.00;99.90
27540;DHT22;15906;52.046;4.724;2024-01-07T11:49:48;2.10;99.90
27540;DHT22;15906;52.046;4.724;2024-01-07T11:52:16;2.10;99.90
27540;DHT22;15906;52.046;4.724;2024-01-07T11:54:42;2.30;99.90
27540;DHT22;15906;52.046;4.724;2024-01-07T11:57:09;2.30;99.90
27540;DHT22;15906;52.046;4.724;2024-01-07T11:59:35;2.20;99.90
27540;DHT22;15906;52.046;4.724;2024-01-07T12:02:02;2.20;99.90
27540;DHT22;15906;52.046;4.724;2024-01-07T12:04:33;2.20;99.90
27540;DHT22;15906;52.046;4.724;2024-01-07T12:06:59;2.00;99.90
27540;DHT22;15906;52.046;4.724;2024-01-07T12:09:25;2.00;99.90
27540;DHT22;15906;52.046;4.724;2024-01-07T12:11:51;2.00;99.90
27540;DHT22;15906;52.046;4.724;2024-01-07T12:14:17;1.80;99.90
27540;DHT22;15906;52.046;4.724;2024-01-07T12:16:43;1.90;99.90
27540;DHT22;15906;52.046;4.724;2024-01-07T12:19:10;1.90;99.90
27540;DHT22;15906;52.046;4.724;2024-01-07T12:21:36;1.80;99.90
27540;DHT22;15906;52.046;4.724;2024-01-07T12:24:02;1.80;99.90
27540;DHT22;15906;52.046;4.724;2024-01-07T12:26:28;1.80;99.90
27540;DHT22;15906;52.046;4.724;2024-01-07T12:28:57;1.80;99.90
27540;DHT22;15906;52.046;4.724;2024-01-07T12:31:25;1.80;99.90
27540;DHT22;15906;52.046;4.724;2024-01-07T12:33:52;1.90;99.90
27540;DHT22;15906;52.046;4.724;2024-01-07T12:36:22;1.80;99.90
27540;DHT22;15906;52.046;4.724;2024-01-07T12:38:48;1.90;99.90
27540;DHT22;15906;52.046;4.724;2024-01-07T12:41:14;2.00;99.90
27540;DHT22;15906;52.046;4.724;2024-01-07T12:43:39;1.90;99.90
27540;DHT22;15906;52.046;4.724;2024-01-07T12:46:05;1.90;99.90
27540;DHT22;15906;52.046;4.724;2024-01-07T12:48:31;1.90;99.90
27540;DHT22;15906;52.046;4.724;2024-01-07T12:50:57;1.90;99.90
27540;DHT22;15906;52.046;4.724;2024-01-07T12:53:23;2.00;99.90
27540;DHT22;15906;52.046;4.724;2024-01-07T12:55:49;1.90;99.90
27540;DHT22;15906;52.046;4.724;2024-01-07T12:58:14;1.80;99.90
27540;DHT22;15906;52.046;4.724;2024-01-07T13:00:42;1.70;99.90
27540;DHT22;15906;52.046;4.724;2024-01-07T13:03:08;1.70;99.90
27540;DHT22;15906;52.046;4.724;2024-01-07T13:05:39;1.80;99.90
27540;DHT22;15906;52.046;4.724;2024-01-07T13:08:04;2.00;99.90
27540;DHT22;15906;52.046;4.724;2024-01-07T13:10:30;2.10;99.90
27540;DHT22;15906;52.046;4.724;2024-01-07T13:12:56;2.10;99.90
27540;DHT22;15906;52.046;4.724;2024-01-07T13:15:21;2.20;99.90
27540;DHT22;15906;52.046;4.724;2024-01-07T13:17:48;2.30;99.90
27540;DHT22;15906;52.046;4.724;2024-01-07T13:20:13;2.30;99.90
27540;DHT22;15906;52.046;4.724;2024-01-07T13:22:40;2.30;99.90
27540;DHT22;15906;52.046;4.724;2024-01-07T13:25:06;2.20;99.90
27540;DHT22;15906;52.046;4.724;2024-01-07T13:27:32;2.20;99.90
27540;DHT22;15906;52.046;4.724;2024-01-07T13:29:58;2.20;99.90
27540;DHT22;15906;52.046;4.724;2024-01-07T13:32:23;2.10;99.90
27540;DHT22;15906;52.046;4.724;2024-01-07T13:34:49;2.00;99.90
27540;DHT22;15906;52.046;4.724;2024-01-07T13:37:14;2.00;99.90
27540;DHT22;15906;52.046;4.724;2024-01-07T13:39:40;2.00;99.90
27540;DHT22;15906;52.046;4.724;2024-01-07T13:42:06;1.90;99.90
27540;DHT22;15906;52.046;4.724;2024-01-07T13:44:31;1.70;99.90
27540;DHT22;15906;52.046;4.724;2024-01-07T13:47:00;1.70;99.90
27540;DHT22;15906;52.046;4.724;2024-01-07T13:49:27;1.60;99.90
27540;DHT22;15906;52.046;4.724;2024-01-07T13:51:53;1.60;99.90
27540;DHT22;15906;52.046;4.724;2024-01-07T13:54:20;1.40;99.90
27540;DHT22;15906;52.046;4.724;2024-01-07T13:56:46;1.30;99.90
27540;DHT22;15906;52.046;4.724;2024-01-07T13:59:11;1.20;99.90
27540;DHT22;15906;52.046;4.724;2024-01-07T14:01:37;1.30;99.90
27540;DHT22;15906;52.046;4.724;2024-01-07T14:04:03;1.30;99.90
27540;DHT22;15906;52.046;4.724;2024-01-07T14:06:29;1.30;99.90
27540;DHT22;15906;52.046;4.724;2024-01-07T14:08:55;1.40;99.90
27540;DHT22;15906;52.046;4.724;2024-01-07T14:11:20;1.40;99.90
27540;DHT22;15906;52.046;4.724;2024-01-07T14:13:46;1.30;99.90
27540;DHT22;15906;52.046;4.724;2024-01-07T14:16:13;1.30;99.90
27540;DHT22;15906;52.046;4.724;2024-01-07T14:18:38;1.20;99.90
27540;DHT22;15906;52.046;4.724;2024-01-07T14:21:04;1.20;99.90
27540;DHT22;15906;52.046;4.724;2024-01-07T14:23:30;1.20;99.90
27540;DHT22;15906;52.046;4.724;2024-01-07T14:25:56;1.20;99.90
27540;DHT22;15906;52.046;4.724;2024-01-07T14:28:22;1.20;99.90
27540;DHT22;15906;52.046;4.724;2024-01-07T14:30:48;1.20;99.90
27540;DHT22;15906;52.046;4.724;2024-01-07T14:33:14;1.20;99.90
27540;DHT22;15906;52.046;4.724;2024-01-07T14:35:40;1.20;99.90
27540;DHT22;15906;52.046;4.724;2024-01-07T14:38:06;1.20;99.90
27540;DHT22;15906;52.046;4.724;2024-01-07T14:40:31;1.20;99.90
27540;DHT22;15906;52.046;4.724;2024-01-07T14:42:57;1.20;99.90
27540;DHT22;15906;52.046;4.724;2024-01-07T14:45:28;1.10;99.90
27540;DHT22;15906;52.046;4.724;2024-01-07T14:47:54;1.10;99.90
27540;DHT22;15906;52.046;4.724;2024-01-07T14:50:20;1.00;99.90
27540;DHT22;15906;52.046;4.724;2024-01-07T14:52:46;1.00;99.90
27540;DHT22;15906;52.046;4.724;2024-01-07T14:55:12;1.00;99.90
27540;DHT22;15906;52.046;4.724;2024-01-07T14:57:39;0.90;99.90
27540;DHT22;15906;52.046;4.724;2024-01-07T15:00:05;1.00;99.90
27540;DHT22;15906;52.046;4.724;2024-01-07T15:02:31;0.90;99.90
27540;DHT22;15906;52.046;4.724;2024-01-07T15:04:57;0.80;99.90
27540;DHT22;15906;52.046;4.724;2024-01-07T15:07:24;0.90;99.90
27540;DHT22;15906;52.046;4.724;2024-01-07T15:09:50;0.80;99.90
27540;DHT22;15906;52.046;4.724;2024-01-07T15:12:16;0.80;99.90
27540;DHT22;15906;52.046;4.724;2024-01-07T15:14:41;0.80;99.90
27540;DHT22;15906;52.046;4.724;2024-01-07T15:17:07;0.80;99.90
27540;DHT22;15906;52.046;4.724;2024-01-07T15:19:32;0.80;99.90
27540;DHT22;15906;52.046;4.724;2024-01-07T15:21:58;0.80;99.90
27540;DHT22;15906;52.046;4.724;2024-01-07T15:24:23;0.70;99.90
27540;DHT22;15906;52.046;4.724;2024-01-07T15:26:49;0.70;99.90
27540;DHT22;15906;52.046;4.724;2024-01-07T15:29:15;0.70;99.90
27540;DHT22;15906;52.046;4.724;2024-01-07T15:31:40;0.60;99.90
27540;DHT22;15906;52.046;4.724;2024-01-07T15:34:06;0.60;99.90
27540;DHT22;15906;52.046;4.724;2024-01-07T15:36:34;0.60;99.90
27540;DHT22;15906;52.046;4.724;2024-01-07T15:39:00;0.60;99.90
27540;DHT22;15906;52.046;4.724;2024-01-07T15:41:26;0.60;99.90
27540;DHT22;15906;52.046;4.724;2024-01-07T15:43:51;0.60;99.90
27540;DHT22;15906;52.046;4.724;2024-01-07T15:46:17;0.50;99.90